< < Back
Terminal Aerodrome Forecast


Current Version              Previous Versions:   1  2  3  4  5  6  7  8  9  

Terminal Aerodrome Forecast

087
FTUS42 KCAE 271100
TAFCAE
TAF
KCAE 271133Z 2712/2812 23007KT P6SM VCSH BKN025
      TEMPO 2712/2715 5SM -SHRA BR BKN015
     FM271500 32012G18KT P6SM -SHRA OVC025
     FM272000 36009KT P6SM BKN025
     FM272300 33008KT P6SM SCT030 BKN060=

Latest METAR

422
SAUS80 KWBC 271700 RRA
MTRCAE
METAR KCAE 271656Z 35006KT 9SM -RA OVC009 13/11 A2971 RMK AO2 RAB18
SLP059 P0001 T01330106


USA.gov is the U.S. government's official web portal to all federal, state and local government web resources and services.